sensor_id;sensor_type;location;lat;lon;timestamp;pressure;altitude;pressure_sealevel;temperature;humidity
21547;BME280;41275;51.912;4.388;2023-08-12T00:02:18;101722.38;;;27.19;52.01
21547;BME280;41275;51.912;4.388;2023-08-12T00:07:40;101717.13;;;27.23;52.30
21547;BME280;41275;51.912;4.388;2023-08-12T00:13:04;101707.84;;;27.15;52.22
21547;BME280;41275;51.912;4.388;2023-08-12T00:18:25;101710.50;;;27.06;52.40
21547;BME280;41275;51.912;4.388;2023-08-12T00:23:46;101700.09;;;27.00;52.35
21547;BME280;41275;51.912;4.388;2023-08-12T00:29:10;101690.34;;;26.99;52.56
21547;BME280;41275;51.912;4.388;2023-08-12T00:34:31;101691.81;;;27.05;52.43
21547;BME280;41275;51.912;4.388;2023-08-12T00:39:52;101678.59;;;27.12;52.69
21547;BME280;41275;51.912;4.388;2023-08-12T00:45:14;101677.66;;;27.16;52.55
21547;BME280;41275;51.912;4.388;2023-08-12T00:50:39;101670.75;;;27.19;52.52
21547;BME280;41275;51.912;4.388;2023-08-12T00:56:00;101677.66;;;27.16;52.42
21547;BME280;41275;51.912;4.388;2023-08-12T01:01:21;101663.41;;;27.11;52.61
21547;BME280;41275;51.912;4.388;2023-08-12T01:06:43;101665.97;;;27.16;52.73
21547;BME280;41275;51.912;4.388;2023-08-12T01:12:12;101655.59;;;27.18;52.45
21547;BME280;41275;51.912;4.388;2023-08-12T01:17:36;101643.59;;;27.19;52.84
21547;BME280;41275;51.912;4.388;2023-08-12T01:23:13;101644.41;;;27.20;52.77
21547;BME280;41275;51.912;4.388;2023-08-12T01:28:35;101644.41;;;27.20;52.69
21547;BME280;41275;51.912;4.388;2023-08-12T01:34:02;101639.44;;;27.22;52.51
21547;BME280;41275;51.912;4.388;2023-08-12T01:39:27;101627.31;;;27.28;52.46
21547;BME280;41275;51.912;4.388;2023-08-12T01:44:49;101627.13;;;27.33;52.60
21547;BME280;41275;51.912;4.388;2023-08-12T01:50:11;101622.31;;;27.38;52.80
21547;BME280;41275;51.912;4.388;2023-08-12T01:55:32;101615.78;;;27.39;52.70
21547;BME280;41275;51.912;4.388;2023-08-12T02:00:53;101610.66;;;27.47;52.48
21547;BME280;41275;51.912;4.388;2023-08-12T02:06:14;101609.53;;;27.48;52.56
21547;BME280;41275;51.912;4.388;2023-08-12T02:11:35;101597.53;;;27.49;52.64
21547;BME280;41275;51.912;4.388;2023-08-12T02:16:57;101600.72;;;27.51;52.65
21547;BME280;41275;51.912;4.388;2023-08-12T02:22:18;101601.06;;;27.40;52.62
21547;BME280;41275;51.912;4.388;2023-08-12T02:27:39;101592.13;;;27.40;53.03
21547;BME280;41275;51.912;4.388;2023-08-12T02:33:01;101589.06;;;27.41;53.06
21547;BME280;41275;51.912;4.388;2023-08-12T02:38:22;101580.75;;;27.38;53.30
21547;BME280;41275;51.912;4.388;2023-08-12T02:43:43;101578.84;;;27.38;53.25
21547;BME280;41275;51.912;4.388;2023-08-12T02:49:04;101573.75;;;27.28;53.82
21547;BME280;41275;51.912;4.388;2023-08-12T02:54:25;101579.66;;;27.22;53.81
21547;BME280;41275;51.912;4.388;2023-08-12T02:59:47;101565.09;;;27.09;54.00
21547;BME280;41275;51.912;4.388;2023-08-12T03:05:08;101554.88;;;27.06;54.14
21547;BME280;41275;51.912;4.388;2023-08-12T03:10:30;101538.06;;;27.04;54.41
21547;BME280;41275;51.912;4.388;2023-08-12T03:15:51;101543.38;;;27.00;54.33
21547;BME280;41275;51.912;4.388;2023-08-12T03:21:12;101540.34;;;26.93;54.47
21547;BME280;41275;51.912;4.388;2023-08-12T03:26:33;101533.47;;;26.87;54.74
21547;BME280;41275;51.912;4.388;2023-08-12T03:31:55;101538.25;;;26.81;54.77
21547;BME280;41275;51.912;4.388;2023-08-12T03:37:16;101532.34;;;26.97;55.06
21547;BME280;41275;51.912;4.388;2023-08-12T03:42:37;101520.97;;;27.03;55.04
21547;BME280;41275;51.912;4.388;2023-08-12T03:47:58;101512.34;;;27.10;55.03
21547;BME280;41275;51.912;4.388;2023-08-12T03:53:19;101511.41;;;27.14;55.01
21547;BME280;41275;51.912;4.388;2023-08-12T03:58:42;101490.47;;;27.15;54.95
21547;BME280;41275;51.912;4.388;2023-08-12T04:04:03;101481.69;;;27.18;54.92
21547;BME280;41275;51.912;4.388;2023-08-12T04:09:25;101475.13;;;27.19;54.91
21547;BME280;41275;51.912;4.388;2023-08-12T04:14:46;101468.88;;;27.27;55.14
21547;BME280;41275;51.912;4.388;2023-08-12T04:20:08;101479.75;;;27.27;54.96
21547;BME280;41275;51.912;4.388;2023-08-12T04:25:29;101463.78;;;27.26;55.08
21547;BME280;41275;51.912;4.388;2023-08-12T04:30:50;101463.59;;;27.31;55.13
21547;BME280;41275;51.912;4.388;2023-08-12T04:36:13;101454.63;;;27.30;54.97
21547;BME280;41275;51.912;4.388;2023-08-12T04:41:34;101456.59;;;27.21;55.09
21547;BME280;41275;51.912;4.388;2023-08-12T04:46:55;101450.22;;;27.17;54.99
21547;BME280;41275;51.912;4.388;2023-08-12T04:52:17;101444.59;;;27.22;54.99
21547;BME280;41275;51.912;4.388;2023-08-12T04:57:39;101443.66;;;27.18;55.04
21547;BME280;41275;51.912;4.388;2023-08-12T05:03:00;101449.41;;;27.08;55.22
21547;BME280;41275;51.912;4.388;2023-08-12T05:08:37;101454.25;;;26.85;55.59
21547;BME280;41275;51.912;4.388;2023-08-12T05:13:58;101460.47;;;26.68;55.88
21547;BME280;41275;51.912;4.388;2023-08-12T05:19:19;101464.13;;;26.55;55.94
21547;BME280;41275;51.912;4.388;2023-08-12T05:24:41;101449.09;;;26.31;56.43
21547;BME280;41275;51.912;4.388;2023-08-12T05:30:02;101454.00;;;26.20;56.92
21547;BME280;41275;51.912;4.388;2023-08-12T05:35:24;101445.25;;;26.24;57.31
21547;BME280;41275;51.912;4.388;2023-08-12T05:40:45;101444.63;;;26.27;57.88
21547;BME280;41275;51.912;4.388;2023-08-12T05:46:07;101441.09;;;26.35;57.68
21547;BME280;41275;51.912;4.388;2023-08-12T05:51:28;101440.16;;;26.39;57.61
21547;BME280;41275;51.912;4.388;2023-08-12T05:56:49;101443.19;;;26.38;57.69
21547;BME280;41275;51.912;4.388;2023-08-12T06:02:10;101435.53;;;26.49;57.81
21547;BME280;41275;51.912;4.388;2023-08-12T06:07:31;101444.63;;;26.44;57.77
21547;BME280;41275;51.912;4.388;2023-08-12T06:12:53;101443.81;;;26.35;57.77
21547;BME280;41275;51.912;4.388;2023-08-12T06:18:14;101444.94;;;26.34;57.76
21547;BME280;41275;51.912;4.388;2023-08-12T06:23:35;101439.97;;;26.36;57.63
21547;BME280;41275;51.912;4.388;2023-08-12T06:28:56;101449.78;;;26.46;57.71
21547;BME280;41275;51.912;4.388;2023-08-12T06:34:17;101438.91;;;26.46;57.85
21547;BME280;41275;51.912;4.388;2023-08-12T06:39:39;101443.22;;;26.47;57.82
21547;BME280;41275;51.912;4.388;2023-08-12T06:45:00;101442.69;;;26.44;57.82
21547;BME280;41275;51.912;4.388;2023-08-12T06:50:21;101439.53;;;26.51;57.80
21547;BME280;41275;51.912;4.388;2023-08-12T06:55:45;101450.41;;;26.51;57.47
21547;BME280;41275;51.912;4.388;2023-08-12T07:01:06;101479.56;;;25.49;56.35
21547;BME280;41275;51.912;4.388;2023-08-12T07:06:28;101477.41;;;23.92;58.53
21547;BME280;41275;51.912;4.388;2023-08-12T07:11:49;101479.94;;;23.56;58.62
21547;BME280;41275;51.912;4.388;2023-08-12T07:17:10;101476.09;;;23.29;59.45
21547;BME280;41275;51.912;4.388;2023-08-12T07:22:31;101474.50;;;23.28;59.05
21547;BME280;41275;51.912;4.388;2023-08-12T07:27:52;101465.75;;;23.17;59.26
21547;BME280;41275;51.912;4.388;2023-08-12T07:33:14;101472.22;;;23.35;58.97
21547;BME280;41275;51.912;4.388;2023-08-12T07:38:35;101486.44;;;23.08;59.34
21547;BME280;41275;51.912;4.388;2023-08-12T07:43:56;101497.31;;;23.03;58.89
21547;BME280;41275;51.912;4.388;2023-08-12T07:49:17;101510.75;;;23.22;59.34
21547;BME280;41275;51.912;4.388;2023-08-12T07:54:39;101508.22;;;23.31;59.07
21547;BME280;41275;51.912;4.388;2023-08-12T08:00:00;101498.03;;;23.09;59.75
21547;BME280;41275;51.912;4.388;2023-08-12T08:05:21;101486.19;;;23.37;59.51
21547;BME280;41275;51.912;4.388;2023-08-12T08:10:42;101486.34;;;23.60;59.04
21547;BME280;41275;51.912;4.388;2023-08-12T08:16:03;101488.31;;;24.00;58.03
21547;BME280;41275;51.912;4.388;2023-08-12T08:21:25;101500.59;;;24.48;57.70
21547;BME280;41275;51.912;4.388;2023-08-12T08:26:46;101494.38;;;24.97;56.65
21547;BME280;41275;51.912;4.388;2023-08-12T08:32:08;101492.75;;;25.41;56.36
21547;BME280;41275;51.912;4.388;2023-08-12T08:37:29;101487.34;;;25.73;55.45
21547;BME280;41275;51.912;4.388;2023-08-12T08:42:53;101484.19;;;26.28;54.66
21547;BME280;41275;51.912;4.388;2023-08-12T08:48:15;101480.56;;;26.76;53.64
21547;BME280;41275;51.912;4.388;2023-08-12T08:53:37;101483.63;;;27.00;52.88
21547;BME280;41275;51.912;4.388;2023-08-12T08:58:59;101495.06;;;27.40;52.16
21547;BME280;41275;51.912;4.388;2023-08-12T09:04:21;101492.25;;;27.75;51.12
21547;BME280;41275;51.912;4.388;2023-08-12T09:09:46;101502.16;;;27.71;49.48
21547;BME280;41275;51.912;4.388;2023-08-12T09:15:09;101502.13;;;27.88;48.33
21547;BME280;41275;51.912;4.388;2023-08-12T09:20:31;101540.53;;;27.70;48.23
21547;BME280;41275;51.912;4.388;2023-08-12T09:25:52;101527.09;;;27.91;47.34
21547;BME280;41275;51.912;4.388;2023-08-12T09:31:25;101528.28;;;28.61;45.05
21547;BME280;41275;51.912;4.388;2023-08-12T09:36:47;101536.00;;;28.59;44.50
21547;BME280;41275;51.912;4.388;2023-08-12T09:42:09;101537.59;;;28.30;44.98
21547;BME280;41275;51.912;4.388;2023-08-12T09:47:33;101538.19;;;28.36;44.99
21547;BME280;41275;51.912;4.388;2023-08-12T09:52:55;101548.59;;;28.04;45.42
21547;BME280;41275;51.912;4.388;2023-08-12T09:58:17;101546.34;;;27.51;46.12
21547;BME280;41275;51.912;4.388;2023-08-12T10:03:41;101546.22;;;27.38;46.69
21547;BME280;41275;51.912;4.388;2023-08-12T10:09:05;101549.59;;;27.44;46.40
21547;BME280;41275;51.912;4.388;2023-08-12T10:14:29;101547.16;;;27.42;46.53
21547;BME280;41275;51.912;4.388;2023-08-12T10:19:55;101541.72;;;28.07;46.01
21547;BME280;41275;51.912;4.388;2023-08-12T10:25:18;101540.97;;;28.27;45.57
21547;BME280;41275;51.912;4.388;2023-08-12T10:30:44;101548.78;;;28.29;44.88
21547;BME280;41275;51.912;4.388;2023-08-12T10:36:06;101545.97;;;28.17;44.60
21547;BME280;41275;51.912;4.388;2023-08-12T10:41:28;101538.06;;;27.94;44.29
21547;BME280;41275;51.912;4.388;2023-08-12T10:46:52;101542.47;;;28.16;44.82
21547;BME280;41275;51.912;4.388;2023-08-12T10:52:30;101543.97;;;28.05;43.96
21547;BME280;41275;51.912;4.388;2023-08-12T10:57:54;101537.25;;;28.32;43.59
21547;BME280;41275;51.912;4.388;2023-08-12T11:03:15;101543.50;;;28.32;43.25
21547;BME280;41275;51.912;4.388;2023-08-12T11:08:37;101537.75;;;28.25;43.68
21547;BME280;41275;51.912;4.388;2023-08-12T11:14:14;101536.13;;;28.33;43.66
21547;BME280;41275;51.912;4.388;2023-08-12T11:19:35;101542.53;;;28.37;43.37
21547;BME280;41275;51.912;4.388;2023-08-12T11:24:57;101540.69;;;28.92;42.92
21547;BME280;41275;51.912;4.388;2023-08-12T11:30:20;101541.38;;;28.68;42.87
21547;BME280;41275;51.912;4.388;2023-08-12T11:35:42;101537.41;;;28.86;42.61
21547;BME280;41275;51.912;4.388;2023-08-12T11:41:04;101545.56;;;28.86;42.22
21547;BME280;41275;51.912;4.388;2023-08-12T11:46:25;101538.19;;;28.86;42.74
21547;BME280;41275;51.912;4.388;2023-08-12T11:51:47;101537.75;;;29.05;42.52
21547;BME280;41275;51.912;4.388;2023-08-12T11:57:09;101536.34;;;29.32;41.68
21547;BME280;41275;51.912;4.388;2023-08-12T12:02:30;101551.56;;;29.33;40.71
21547;BME280;41275;51.912;4.388;2023-08-12T12:07:52;101542.47;;;29.63;40.31
21547;BME280;41275;51.912;4.388;2023-08-12T12:13:13;101563.19;;;29.76;39.75
21547;BME280;41275;51.912;4.388;2023-08-12T12:18:35;101555.00;;;29.88;39.63
21547;BME280;41275;51.912;4.388;2023-08-12T12:23:56;101565.63;;;29.23;40.39
21547;BME280;41275;51.912;4.388;2023-08-12T12:29:18;101582.19;;;29.97;40.34
21547;BME280;41275;51.912;4.388;2023-08-12T12:34:39;101582.28;;;31.14;38.62
21547;BME280;41275;51.912;4.388;2023-08-12T12:40:00;101579.84;;;30.20;39.86
21547;BME280;41275;51.912;4.388;2023-08-12T12:45:21;101578.53;;;30.66;38.95
21547;BME280;41275;51.912;4.388;2023-08-12T12:50:42;101587.84;;;31.18;38.01
21547;BME280;41275;51.912;4.388;2023-08-12T12:56:04;101582.88;;;32.43;37.07
21547;BME280;41275;51.912;4.388;2023-08-12T13:01:25;101598.56;;;33.59;33.92
21547;BME280;41275;51.912;4.388;2023-08-12T13:06:46;101586.25;;;33.10;33.62
21547;BME280;41275;51.912;4.388;2023-08-12T13:12:10;101584.06;;;34.04;32.14
21547;BME280;41275;51.912;4.388;2023-08-12T13:17:31;101581.44;;;34.41;31.27
21547;BME280;41275;51.912;4.388;2023-08-12T13:22:52;101582.53;;;34.90;30.84
21547;BME280;41275;51.912;4.388;2023-08-12T13:28:13;101592.25;;;34.54;30.31
21547;BME280;41275;51.912;4.388;2023-08-12T13:33:37;101601.34;;;35.18;29.87
21547;BME280;41275;51.912;4.388;2023-08-12T13:38:59;101595.72;;;35.48;29.46
21547;BME280;41275;51.912;4.388;2023-08-12T13:44:20;101589.81;;;34.22;31.45
21547;BME280;41275;51.912;4.388;2023-08-12T13:49:41;101602.84;;;32.28;33.83
21547;BME280;41275;51.912;4.388;2023-08-12T13:55:02;101587.09;;;33.53;31.86
21547;BME280;41275;51.912;4.388;2023-08-12T14:00:24;101580.56;;;34.90;29.18
21547;BME280;41275;51.912;4.388;2023-08-12T14:05:45;101592.94;;;35.07;27.71
21547;BME280;41275;51.912;4.388;2023-08-12T14:11:06;101571.56;;;34.97;27.67
21547;BME280;41275;51.912;4.388;2023-08-12T14:16:28;101578.50;;;35.14;27.97
21547;BME280;41275;51.912;4.388;2023-08-12T14:21:49;101574.09;;;35.91;26.44
21547;BME280;41275;51.912;4.388;2023-08-12T14:27:11;101592.88;;;36.26;25.47
21547;BME280;41275;51.912;4.388;2023-08-12T14:32:33;101583.72;;;36.15;24.60
21547;BME280;41275;51.912;4.388;2023-08-12T14:37:54;101588.88;;;34.98;25.09
21547;BME280;41275;51.912;4.388;2023-08-12T14:43:16;101573.56;;;35.30;24.94
21547;BME280;41275;51.912;4.388;2023-08-12T14:48:37;101575.44;;;35.63;25.38
21547;BME280;41275;51.912;4.388;2023-08-12T14:53:58;101582.34;;;35.09;25.70
21547;BME280;41275;51.912;4.388;2023-08-12T14:59:19;101570.53;;;35.42;24.83
21547;BME280;41275;51.912;4.388;2023-08-12T15:04:40;101573.59;;;35.34;24.86
21547;BME280;41275;51.912;4.388;2023-08-12T15:10:02;101573.66;;;34.74;25.75
21547;BME280;41275;51.912;4.388;2023-08-12T15:15:23;101573.00;;;35.14;25.18
21547;BME280;41275;51.912;4.388;2023-08-12T15:20:44;101580.22;;;35.70;25.27
21547;BME280;41275;51.912;4.388;2023-08-12T15:26:06;101568.69;;;35.98;25.24
21547;BME280;41275;51.912;4.388;2023-08-12T15:31:27;101575.16;;;36.27;25.00
21547;BME280;41275;51.912;4.388;2023-08-12T15:36:50;101567.13;;;36.63;24.57
21547;BME280;41275;51.912;4.388;2023-08-12T15:42:12;101576.41;;;37.39;23.54
21547;BME280;41275;51.912;4.388;2023-08-12T15:47:33;101572.78;;;36.95;24.50
21547;BME280;41275;51.912;4.388;2023-08-12T15:52:54;101555.91;;;37.82;23.68
21547;BME280;41275;51.912;4.388;2023-08-12T15:58:16;101560.31;;;36.46;24.28
21547;BME280;41275;51.912;4.388;2023-08-12T16:03:39;101563.88;;;34.76;25.77
21547;BME280;41275;51.912;4.388;2023-08-12T16:09:01;101563.91;;;32.54;28.56
21547;BME280;41275;51.912;4.388;2023-08-12T16:14:22;101569.88;;;31.61;30.72
21547;BME280;41275;51.912;4.388;2023-08-12T16:19:43;101563.31;;;31.05;31.82
21547;BME280;41275;51.912;4.388;2023-08-12T16:25:06;101564.44;;;30.52;32.43
21547;BME280;41275;51.912;4.388;2023-08-12T16:30:28;101567.56;;;30.38;33.26
21547;BME280;41275;51.912;4.388;2023-08-12T16:35:49;101567.16;;;30.64;33.36
21547;BME280;41275;51.912;4.388;2023-08-12T16:41:11;101559.00;;;30.15;33.72
21547;BME280;41275;51.912;4.388;2023-08-12T16:46:33;101568.66;;;30.13;33.96
21547;BME280;41275;51.912;4.388;2023-08-12T16:51:54;101565.56;;;29.90;34.07
21547;BME280;41275;51.912;4.388;2023-08-12T16:57:16;101560.22;;;31.07;33.07
21547;BME280;41275;51.912;4.388;2023-08-12T17:02:37;101566.56;;;30.83;33.00
21547;BME280;41275;51.912;4.388;2023-08-12T17:07:58;101566.41;;;30.92;33.49
21547;BME280;41275;51.912;4.388;2023-08-12T17:13:19;101578.00;;;32.20;32.54
21547;BME280;41275;51.912;4.388;2023-08-12T17:18:41;101561.72;;;33.60;30.68
21547;BME280;41275;51.912;4.388;2023-08-12T17:24:02;101563.38;;;32.83;31.05
21547;BME280;41275;51.912;4.388;2023-08-12T17:29:24;101566.53;;;33.24;30.65
21547;BME280;41275;51.912;4.388;2023-08-12T17:34:45;101562.47;;;33.57;29.30
21547;BME280;41275;51.912;4.388;2023-08-12T17:40:07;101553.44;;;33.14;29.27
21547;BME280;41275;51.912;4.388;2023-08-12T17:45:31;101554.53;;;31.72;30.23
21547;BME280;41275;51.912;4.388;2023-08-12T17:50:52;101565.19;;;30.77;31.57
21547;BME280;41275;51.912;4.388;2023-08-12T17:56:14;101551.47;;;29.75;32.28
21547;BME280;41275;51.912;4.388;2023-08-12T18:01:36;101559.50;;;29.26;32.54
21547;BME280;41275;51.912;4.388;2023-08-12T18:06:57;101562.22;;;28.84;33.11
21547;BME280;41275;51.912;4.388;2023-08-12T18:12:20;101557.50;;;28.52;34.00
21547;BME280;41275;51.912;4.388;2023-08-12T18:17:41;101550.88;;;28.32;34.93
21547;BME280;41275;51.912;4.388;2023-08-12T18:23:02;101565.72;;;28.05;36.25
21547;BME280;41275;51.912;4.388;2023-08-12T18:28:24;101574.63;;;27.84;37.42
21547;BME280;41275;51.912;4.388;2023-08-12T18:33:45;101576.06;;;27.73;38.17
21547;BME280;41275;51.912;4.388;2023-08-12T18:39:06;101589.06;;;27.59;38.83
21547;BME280;41275;51.912;4.388;2023-08-12T18:44:27;101584.13;;;27.44;39.65
21547;BME280;41275;51.912;4.388;2023-08-12T18:49:49;101590.19;;;27.23;40.48
21547;BME280;41275;51.912;4.388;2023-08-12T18:55:10;101594.81;;;27.05;40.91
21547;BME280;41275;51.912;4.388;2023-08-12T19:00:31;101594.66;;;26.93;41.01
21547;BME280;41275;51.912;4.388;2023-08-12T19:05:59;101590.31;;;26.66;41.53
21547;BME280;41275;51.912;4.388;2023-08-12T19:11:20;101604.50;;;26.54;41.65
21547;BME280;41275;51.912;4.388;2023-08-12T19:16:43;101608.78;;;26.47;41.65
21547;BME280;41275;51.912;4.388;2023-08-12T19:22:04;101597.06;;;26.37;41.95
21547;BME280;41275;51.912;4.388;2023-08-12T19:27:26;101610.81;;;26.41;42.06
21547;BME280;41275;51.912;4.388;2023-08-12T19:32:49;101604.88;;;26.30;42.13
21547;BME280;41275;51.912;4.388;2023-08-12T19:38:12;101625.09;;;26.24;41.82
21547;BME280;41275;51.912;4.388;2023-08-12T19:43:33;101624.91;;;26.20;41.84
21547;BME280;41275;51.912;4.388;2023-08-12T19:48:54;101620.66;;;26.28;41.76
21547;BME280;41275;51.912;4.388;2023-08-12T19:54:16;101619.38;;;26.26;41.57
21547;BME280;41275;51.912;4.388;2023-08-12T19:59:37;101619.66;;;26.24;41.55
21547;BME280;41275;51.912;4.388;2023-08-12T20:04:58;101627.34;;;26.22;41.41
21547;BME280;41275;51.912;4.388;2023-08-12T20:10:20;101631.97;;;26.22;41.34
21547;BME280;41275;51.912;4.388;2023-08-12T20:15:41;101632.22;;;26.11;41.65
21547;BME280;41275;51.912;4.388;2023-08-12T20:21:02;101619.59;;;26.07;41.86
21547;BME280;41275;51.912;4.388;2023-08-12T20:26:24;101610.97;;;26.05;41.88
21547;BME280;41275;51.912;4.388;2023-08-12T20:31:45;101614.00;;;26.03;42.27
21547;BME280;41275;51.912;4.388;2023-08-12T20:37:07;101614.94;;;25.99;42.64
21547;BME280;41275;51.912;4.388;2023-08-12T20:42:28;101614.56;;;25.91;42.65
21547;BME280;41275;51.912;4.388;2023-08-12T20:47:49;101614.72;;;25.86;43.00
21547;BME280;41275;51.912;4.388;2023-08-12T20:53:11;101616.94;;;25.84;43.41
21547;BME280;41275;51.912;4.388;2023-08-12T20:58:32;101602.38;;;25.80;43.53
21547;BME280;41275;51.912;4.388;2023-08-12T21:03:53;101608.94;;;25.79;43.67
21547;BME280;41275;51.912;4.388;2023-08-12T21:09:14;101617.53;;;25.81;43.53
21547;BME280;41275;51.912;4.388;2023-08-12T21:14:37;101626.19;;;25.83;43.95
21547;BME280;41275;51.912;4.388;2023-08-12T21:19:59;101612.31;;;25.85;43.90
21547;BME280;41275;51.912;4.388;2023-08-12T21:25:20;101612.44;;;25.80;44.02
21547;BME280;41275;51.912;4.388;2023-08-12T21:30:41;101619.16;;;25.82;43.94
21547;BME280;41275;51.912;4.388;2023-08-12T21:36:02;101609.72;;;25.80;43.84
21547;BME280;41275;51.912;4.388;2023-08-12T21:41:23;101613.56;;;25.79;43.90
21547;BME280;41275;51.912;4.388;2023-08-12T21:46:45;101621.91;;;25.91;43.55
21547;BME280;41275;51.912;4.388;2023-08-12T21:52:06;101624.44;;;25.87;43.93
21547;BME280;41275;51.912;4.388;2023-08-12T21:57:27;101611.44;;;25.76;43.98
21547;BME280;41275;51.912;4.388;2023-08-12T22:02:48;101616.63;;;25.63;44.29
21547;BME280;41275;51.912;4.388;2023-08-12T22:08:09;101615.91;;;25.58;44.52
21547;BME280;41275;51.912;4.388;2023-08-12T22:13:31;101618.75;;;25.53;44.83
21547;BME280;41275;51.912;4.388;2023-08-12T22:18:52;101632.94;;;25.50;45.11
21547;BME280;41275;51.912;4.388;2023-08-12T22:24:13;101630.94;;;25.41;45.33
21547;BME280;41275;51.912;4.388;2023-08-12T22:29:34;101627.56;;;25.36;45.94
21547;BME280;41275;51.912;4.388;2023-08-12T22:34:56;101620.66;;;25.30;45.99
21547;BME280;41275;51.912;4.388;2023-08-12T22:40:17;101626.19;;;25.25;46.18
21547;BME280;41275;51.912;4.388;2023-08-12T22:45:43;101625.50;;;25.19;46.00
21547;BME280;41275;51.912;4.388;2023-08-12T22:51:04;101629.84;;;25.20;46.19
21547;BME280;41275;51.912;4.388;2023-08-12T22:56:25;101632.34;;;25.16;46.17
21547;BME280;41275;51.912;4.388;2023-08-12T23:01:47;101628.03;;;25.15;46.33
21547;BME280;41275;51.912;4.388;2023-08-12T23:07:08;101643.97;;;25.17;46.31
21547;BME280;41275;51.912;4.388;2023-08-12T23:12:29;101643.97;;;25.17;46.44
21547;BME280;41275;51.912;4.388;2023-08-12T23:17:50;101631.22;;;25.17;46.38
21547;BME280;41275;51.912;4.388;2023-08-12T23:23:12;101632.75;;;25.10;46.61
21547;BME280;41275;51.912;4.388;2023-08-12T23:28:33;101640.47;;;25.03;46.66
21547;BME280;41275;51.912;4.388;2023-08-12T23:33:54;101650.53;;;24.88;46.98
21547;BME280;41275;51.912;4.388;2023-08-12T23:39:15;101648.88;;;25.15;46.96
21547;BME280;41275;51.912;4.388;2023-08-12T23:44:37;101642.03;;;25.31;46.75
21547;BME280;41275;51.912;4.388;2023-08-12T23:49:58;101637.34;;;25.45;46.68
21547;BME280;41275;51.912;4.388;2023-08-12T23:55:19;101628.75;;;25.43;46.43
